Positano Jet — IFTU — position and weather

sailwx.info

Track history (hours):
 
Tides and Currents Weather Stations Pressure Air Temp Water Temp Dewpoint Dewpoint Depression Visibility Wind Speed Wind Dir Waves Ship Positions

Positano Jet

Last reported at 2014-Oct-19 16:33 UTC. Time now 2014-Oct-24 15:36 UTC.
Position N 40°37' E 014°29'.

Length 23 m; draft 2 m.

Type: Ship. MMSI: 247160800.

Date/timePositionNaut miles runAvg speedWind from/ knotsBaromVisibWave heightAir tempDewpointWater temp
2014-Oct-19 16:33N 40°37' E 014°29'6 0.2
2014-Oct-18 10:17N 40°34' E 014°21'  
2014-Oct-15 14:15N 40°37' E 014°29'10 0.4
2014-Oct-14 10:10N 40°34' E 014°17'0 0.0
2014-Oct-13 16:06N 40°34' E 014°16'0 0.3
2014-Oct-13 15:31N 40°34' E 014°16'1010.0
2014-Oct-13 14:28N 40°38' E 014°29'7 7.3
2014-Oct-13 13:27N 40°34' E 014°21'0 0.1
2014-Oct-13 12:24N 40°34' E 014°21'5 1.4
2014-Oct-13 09:05N 40°33' E 014°14'1220.2
2014-Oct-13 08:30N 40°38' E 014°29'0 0.0
2014-Oct-11 14:21N 40°38' E 014°29'8 8.5
2014-Oct-11 13:26N 40°34' E 014°20'3 3.2
2014-Oct-11 12:31N 40°34' E 014°16'1110.4
2014-Oct-11 11:30N 40°38' E 014°29'1 1.5
2014-Oct-11 10:33N 40°37' E 014°28'1 0.1
2014-Oct-10 16:33N 40°37' E 014°29'8 6.4
2014-Oct-10 15:23N 40°34' E 014°20'8 8.5
2014-Oct-10 14:27N 40°38' E 014°29'5 6.0
2014-Oct-10 13:32N 40°35' E 014°23'5 5.0
2014-Oct-10 12:30N 40°34' E 014°16'1111.0
2014-Oct-10 11:33N 40°38' E 014°29'1 0.5
2014-Oct-10 10:33N 40°37' E 014°29'  
Track history (hours):
 
Tides and Currents Weather Stations Pressure Air Temp Water Temp Dewpoint Dewpoint Depression Visibility Wind Speed Wind Dir Waves Ship Positions

Positano Jet

Last reported at 2014-Oct-19 16:33 UTC. Time now 2014-Oct-24 15:36 UTC.
Position N 40°37' E 014°29'.

Length 23 m; draft 2 m.

Type: Ship. MMSI: 247160800.

Date/timePositionNaut miles runAvg speedWind from/ knotsBaromVisibWave heightAir tempDewpointWater temp
2014-Oct-19 16:33N 40°37' E 014°29'6 0.2
2014-Oct-18 10:17N 40°34' E 014°21'  
2014-Oct-15 14:15N 40°37' E 014°29'10 0.4
2014-Oct-14 10:10N 40°34' E 014°17'0 0.0
2014-Oct-13 16:06N 40°34' E 014°16'0 0.3
2014-Oct-13 15:31N 40°34' E 014°16'1010.0
2014-Oct-13 14:28N 40°38' E 014°29'7 7.3
2014-Oct-13 13:27N 40°34' E 014°21'0 0.1
2014-Oct-13 12:24N 40°34' E 014°21'5 1.4
2014-Oct-13 09:05N 40°33' E 014°14'1220.2
2014-Oct-13 08:30N 40°38' E 014°29'0 0.0
2014-Oct-11 14:21N 40°38' E 014°29'8 8.5
2014-Oct-11 13:26N 40°34' E 014°20'3 3.2
2014-Oct-11 12:31N 40°34' E 014°16'1110.4
2014-Oct-11 11:30N 40°38' E 014°29'1 1.5
2014-Oct-11 10:33N 40°37' E 014°28'1 0.1
2014-Oct-10 16:33N 40°37' E 014°29'8 6.4
2014-Oct-10 15:23N 40°34' E 014°20'8 8.5
2014-Oct-10 14:27N 40°38' E 014°29'5 6.0
2014-Oct-10 13:32N 40°35' E 014°23'5 5.0
2014-Oct-10 12:30N 40°34' E 014°16'1111.0
2014-Oct-10 11:33N 40°38' E 014°29'1 0.5
2014-Oct-10 10:33N 40°37' E 014°29'  

Dump ship's entire track history